メインページ
METAR-TAF:

METAR-TAF

空港 :

Adirondack Regional Airport

Saranac Lake, ニューヨーク, アメリカ合衆国

緯度: 44-23-35N, 経度: 074-12-10W, 海抜: 507m

現時点の気象観測

当レポートは44分前の05:51(UTC)に作成
東/北東の風 7kt
気温 3°C
湿度 87%
気圧 1014 hPa
視程: 16.1km
高度6500ftの雲は散在している
高度9500ftの千切れ雲あり

METAR: KSLK 040551Z AUTO 06007KT 10SM SCT065 BKN095 03/01 A2995 RMK AO2 SLP154 T00330011 10050 20028 58002

時間: 02:35 (06:35 UTC)

予報

当レポートは1時間3分前の05:32(UTC)に作成
予報は04日の 06時(UTC)から 05日の 06時(UTC)まで有効
変向風 4kt
視程: 10km
高度5000ftの曇り
04日の 0800時(UTC)から
変向風 3kt
視程: 9.7km
高度2200ftの曇り
04日の 08時(UTC)から 04日の 12時(UTC)まで一時的に
視程: 6.4km
高度900ftの千切れ雲あり
04日の 1300時(UTC)から
の風 kt
視程: 9.7km
高度1800ftの千切れ雲あり
04日の 2300時(UTC)から
変向風 4kt
視程: 10km
高度3500ftの千切れ雲あり

TAF: KSLK 040532Z 0406/0506 VRB04KT P6SM OVC050 FM040800 VRB03KT 6SM BR OVC022 TEMPO 0408/0412 4SM BR BKN009 FM041300 00000KT 6SM BR BKN018 FM042300 VRB04KT P6SM BKN035

4,000以上の空港の気象観測と天気予報(METAR報とTAF報)

利用可能な観測所は地図上に黄色い丸と赤い丸で示す。

丸の上にカーソルを重ねると観測所名を参照できる。

次にクリックすると気象観測と天気予報を参照できる。

マップの切り替え:黒色「×」印の緑ボタンをクリックして拡大、「-」印の緑ボタンをクリックして縮小、緑色の三角印をクリックして隣りの地図に切り替え


METAR-TAF: